sensor_id;sensor_type;location;lat;lon;timestamp;P1;durP1;ratioP1;P2;durP2;ratioP2
65737;SDS011;52478;51.844;6.582;2023-05-02T00:01:23;7.30;;;3.97;;
65737;SDS011;52478;51.844;6.582;2023-05-02T00:03:49;7.70;;;3.42;;
65737;SDS011;52478;51.844;6.582;2023-05-02T00:06:16;6.85;;;3.72;;
65737;SDS011;52478;51.844;6.582;2023-05-02T00:08:43;7.07;;;3.90;;
65737;SDS011;52478;51.844;6.582;2023-05-02T00:11:09;7.75;;;3.60;;
65737;SDS011;52478;51.844;6.582;2023-05-02T00:13:36;7.72;;;3.72;;
65737;SDS011;52478;51.844;6.582;2023-05-02T00:16:02;6.57;;;3.63;;
65737;SDS011;52478;51.844;6.582;2023-05-02T00:18:30;8.57;;;4.13;;
65737;SDS011;52478;51.844;6.582;2023-05-02T00:20:57;6.43;;;3.22;;
65737;SDS011;52478;51.844;6.582;2023-05-02T00:23:23;6.95;;;3.47;;
65737;SDS011;52478;51.844;6.582;2023-05-02T00:25:50;7.25;;;3.55;;
65737;SDS011;52478;51.844;6.582;2023-05-02T00:28:17;7.10;;;3.72;;
65737;SDS011;52478;51.844;6.582;2023-05-02T00:30:44;6.47;;;4.03;;
65737;SDS011;52478;51.844;6.582;2023-05-02T00:33:10;6.88;;;3.70;;
65737;SDS011;52478;51.844;6.582;2023-05-02T00:35:39;7.63;;;4.35;;
65737;SDS011;52478;51.844;6.582;2023-05-02T00:38:06;8.00;;;4.05;;
65737;SDS011;52478;51.844;6.582;2023-05-02T00:40:41;7.93;;;4.55;;
65737;SDS011;52478;51.844;6.582;2023-05-02T00:43:08;7.60;;;3.58;;
65737;SDS011;52478;51.844;6.582;2023-05-02T00:45:35;7.60;;;4.13;;
65737;SDS011;52478;51.844;6.582;2023-05-02T00:48:02;7.10;;;3.80;;
65737;SDS011;52478;51.844;6.582;2023-05-02T00:50:29;7.32;;;4.32;;
65737;SDS011;52478;51.844;6.582;2023-05-02T00:52:59;8.60;;;4.50;;
65737;SDS011;52478;51.844;6.582;2023-05-02T00:55:25;7.35;;;4.18;;
65737;SDS011;52478;51.844;6.582;2023-05-02T00:57:52;8.10;;;4.07;;
65737;SDS011;52478;51.844;6.582;2023-05-02T01:00:19;7.70;;;3.70;;
65737;SDS011;52478;51.844;6.582;2023-05-02T01:02:47;7.90;;;3.85;;
65737;SDS011;52478;51.844;6.582;2023-05-02T01:05:19;7.40;;;4.22;;
65737;SDS011;52478;51.844;6.582;2023-05-02T01:07:53;6.97;;;3.40;;
65737;SDS011;52478;51.844;6.582;2023-05-02T01:10:29;7.18;;;3.60;;
65737;SDS011;52478;51.844;6.582;2023-05-02T01:13:07;8.32;;;4.40;;
65737;SDS011;52478;51.844;6.582;2023-05-02T01:15:37;8.05;;;3.83;;
65737;SDS011;52478;51.844;6.582;2023-05-02T01:18:05;6.65;;;3.63;;
65737;SDS011;52478;51.844;6.582;2023-05-02T01:20:35;7.53;;;4.05;;
65737;SDS011;52478;51.844;6.582;2023-05-02T01:23:09;6.80;;;3.88;;
65737;SDS011;52478;51.844;6.582;2023-05-02T01:25:46;7.05;;;3.92;;
65737;SDS011;52478;51.844;6.582;2023-05-02T01:28:26;7.97;;;3.72;;
65737;SDS011;52478;51.844;6.582;2023-05-02T01:31:00;7.47;;;3.92;;
65737;SDS011;52478;51.844;6.582;2023-05-02T01:33:28;7.35;;;4.25;;
65737;SDS011;52478;51.844;6.582;2023-05-02T01:35:55;7.20;;;3.80;;
65737;SDS011;52478;51.844;6.582;2023-05-02T01:40:50;6.95;;;4.10;;
65737;SDS011;52478;51.844;6.582;2023-05-02T01:43:17;7.07;;;3.92;;
65737;SDS011;52478;51.844;6.582;2023-05-02T01:45:46;7.15;;;3.53;;
65737;SDS011;52478;51.844;6.582;2023-05-02T01:48:16;6.88;;;3.13;;
65737;SDS011;52478;51.844;6.582;2023-05-02T01:50:44;6.93;;;3.40;;
65737;SDS011;52478;51.844;6.582;2023-05-02T01:53:14;8.48;;;3.50;;
65737;SDS011;52478;51.844;6.582;2023-05-02T01:55:42;7.10;;;3.78;;
65737;SDS011;52478;51.844;6.582;2023-05-02T01:58:10;6.63;;;3.67;;
65737;SDS011;52478;51.844;6.582;2023-05-02T02:00:38;7.90;;;3.42;;
65737;SDS011;52478;51.844;6.582;2023-05-02T02:03:06;6.43;;;3.60;;
65737;SDS011;52478;51.844;6.582;2023-05-02T02:05:36;7.25;;;3.90;;
65737;SDS011;52478;51.844;6.582;2023-05-02T02:08:04;7.47;;;3.40;;
65737;SDS011;52478;51.844;6.582;2023-05-02T02:10:32;7.60;;;3.58;;
65737;SDS011;52478;51.844;6.582;2023-05-02T02:13:03;6.45;;;3.60;;
65737;SDS011;52478;51.844;6.582;2023-05-02T02:15:33;6.97;;;3.83;;
65737;SDS011;52478;51.844;6.582;2023-05-02T02:18:01;6.25;;;3.00;;
65737;SDS011;52478;51.844;6.582;2023-05-02T02:20:30;6.65;;;3.10;;
65737;SDS011;52478;51.844;6.582;2023-05-02T02:22:59;6.78;;;3.65;;
65737;SDS011;52478;51.844;6.582;2023-05-02T02:25:28;6.57;;;3.05;;
65737;SDS011;52478;51.844;6.582;2023-05-02T02:27:54;6.97;;;3.30;;
65737;SDS011;52478;51.844;6.582;2023-05-02T02:30:22;7.03;;;3.78;;
65737;SDS011;52478;51.844;6.582;2023-05-02T02:32:48;5.90;;;3.00;;
65737;SDS011;52478;51.844;6.582;2023-05-02T02:35:15;6.35;;;3.13;;
65737;SDS011;52478;51.844;6.582;2023-05-02T02:37:44;6.78;;;3.60;;
65737;SDS011;52478;51.844;6.582;2023-05-02T02:40:17;6.45;;;3.38;;
65737;SDS011;52478;51.844;6.582;2023-05-02T02:42:49;7.00;;;2.92;;
65737;SDS011;52478;51.844;6.582;2023-05-02T02:45:24;6.55;;;3.08;;
65737;SDS011;52478;51.844;6.582;2023-05-02T02:48:01;7.55;;;3.38;;
65737;SDS011;52478;51.844;6.582;2023-05-02T02:50:35;6.57;;;3.10;;
65737;SDS011;52478;51.844;6.582;2023-05-02T02:53:04;7.30;;;3.60;;
65737;SDS011;52478;51.844;6.582;2023-05-02T02:55:37;6.90;;;3.03;;
65737;SDS011;52478;51.844;6.582;2023-05-02T02:58:11;6.38;;;3.05;;
65737;SDS011;52478;51.844;6.582;2023-05-02T03:00:45;6.60;;;2.72;;
65737;SDS011;52478;51.844;6.582;2023-05-02T03:03:12;6.25;;;3.00;;
65737;SDS011;52478;51.844;6.582;2023-05-02T03:05:40;6.03;;;2.80;;
65737;SDS011;52478;51.844;6.582;2023-05-02T03:08:07;7.70;;;3.40;;
65737;SDS011;52478;51.844;6.582;2023-05-02T03:10:34;6.40;;;3.30;;
65737;SDS011;52478;51.844;6.582;2023-05-02T03:13:02;6.65;;;2.95;;
65737;SDS011;52478;51.844;6.582;2023-05-02T03:15:35;7.20;;;3.22;;
65737;SDS011;52478;51.844;6.582;2023-05-02T03:18:28;6.10;;;2.72;;
65737;SDS011;52478;51.844;6.582;2023-05-02T03:20:55;6.70;;;3.50;;
65737;SDS011;52478;51.844;6.582;2023-05-02T03:23:21;6.85;;;2.92;;
65737;SDS011;52478;51.844;6.582;2023-05-02T03:25:48;6.20;;;2.78;;
65737;SDS011;52478;51.844;6.582;2023-05-02T03:28:16;7.88;;;3.05;;
65737;SDS011;52478;51.844;6.582;2023-05-02T03:30:43;6.45;;;3.00;;
65737;SDS011;52478;51.844;6.582;2023-05-02T03:33:09;7.20;;;2.97;;
65737;SDS011;52478;51.844;6.582;2023-05-02T03:35:36;6.60;;;3.00;;
65737;SDS011;52478;51.844;6.582;2023-05-02T03:38:02;7.13;;;3.00;;
65737;SDS011;52478;51.844;6.582;2023-05-02T03:40:29;6.57;;;2.85;;
65737;SDS011;52478;51.844;6.582;2023-05-02T03:42:55;7.03;;;2.97;;
65737;SDS011;52478;51.844;6.582;2023-05-02T03:45:23;7.13;;;2.88;;
65737;SDS011;52478;51.844;6.582;2023-05-02T03:47:50;7.22;;;3.15;;
65737;SDS011;52478;51.844;6.582;2023-05-02T03:50:16;5.75;;;2.55;;
65737;SDS011;52478;51.844;6.582;2023-05-02T03:55:09;5.95;;;2.63;;
65737;SDS011;52478;51.844;6.582;2023-05-02T03:57:36;6.15;;;2.60;;
65737;SDS011;52478;51.844;6.582;2023-05-02T04:00:03;6.45;;;2.88;;
65737;SDS011;52478;51.844;6.582;2023-05-02T04:02:31;7.18;;;2.92;;
65737;SDS011;52478;51.844;6.582;2023-05-02T04:04:58;6.25;;;2.63;;
65737;SDS011;52478;51.844;6.582;2023-05-02T04:07:24;5.50;;;2.65;;
65737;SDS011;52478;51.844;6.582;2023-05-02T04:09:51;7.05;;;2.60;;
65737;SDS011;52478;51.844;6.582;2023-05-02T04:12:17;6.18;;;2.47;;
65737;SDS011;52478;51.844;6.582;2023-05-02T04:14:45;6.35;;;2.80;;
65737;SDS011;52478;51.844;6.582;2023-05-02T04:17:12;5.90;;;2.55;;
65737;SDS011;52478;51.844;6.582;2023-05-02T04:19:41;5.63;;;2.38;;
65737;SDS011;52478;51.844;6.582;2023-05-02T04:22:07;6.47;;;2.25;;
65737;SDS011;52478;51.844;6.582;2023-05-02T04:24:34;6.13;;;2.67;;
65737;SDS011;52478;51.844;6.582;2023-05-02T04:27:00;5.95;;;2.15;;
65737;SDS011;52478;51.844;6.582;2023-05-02T04:29:27;6.30;;;2.30;;
65737;SDS011;52478;51.844;6.582;2023-05-02T04:31:53;5.53;;;2.13;;
65737;SDS011;52478;51.844;6.582;2023-05-02T04:34:20;6.63;;;2.40;;
65737;SDS011;52478;51.844;6.582;2023-05-02T04:36:48;7.03;;;2.30;;
65737;SDS011;52478;51.844;6.582;2023-05-02T04:39:14;9.05;;;2.80;;
65737;SDS011;52478;51.844;6.582;2023-05-02T04:41:41;6.75;;;2.10;;
65737;SDS011;52478;51.844;6.582;2023-05-02T04:44:07;6.82;;;2.22;;
65737;SDS011;52478;51.844;6.582;2023-05-02T04:46:34;6.63;;;2.00;;
65737;SDS011;52478;51.844;6.582;2023-05-02T04:49:00;6.28;;;1.98;;
65737;SDS011;52478;51.844;6.582;2023-05-02T04:51:27;5.97;;;1.88;;
65737;SDS011;52478;51.844;6.582;2023-05-02T04:53:57;6.40;;;2.67;;
65737;SDS011;52478;51.844;6.582;2023-05-02T04:56:23;5.90;;;2.30;;
65737;SDS011;52478;51.844;6.582;2023-05-02T04:58:50;5.88;;;2.25;;
65737;SDS011;52478;51.844;6.582;2023-05-02T05:01:16;6.25;;;2.13;;
65737;SDS011;52478;51.844;6.582;2023-05-02T05:03:43;5.63;;;2.00;;
65737;SDS011;52478;51.844;6.582;2023-05-02T05:06:09;6.35;;;2.05;;
65737;SDS011;52478;51.844;6.582;2023-05-02T05:08:36;7.13;;;2.30;;
65737;SDS011;52478;51.844;6.582;2023-05-02T05:11:05;4.63;;;1.90;;
65737;SDS011;52478;51.844;6.582;2023-05-02T05:13:31;5.30;;;2.08;;
65737;SDS011;52478;51.844;6.582;2023-05-02T05:15:58;6.10;;;1.90;;
65737;SDS011;52478;51.844;6.582;2023-05-02T05:18:24;8.05;;;2.08;;
65737;SDS011;52478;51.844;6.582;2023-05-02T05:20:51;4.97;;;1.63;;
65737;SDS011;52478;51.844;6.582;2023-05-02T05:23:17;7.20;;;2.17;;
65737;SDS011;52478;51.844;6.582;2023-05-02T05:25:44;7.32;;;2.40;;
65737;SDS011;52478;51.844;6.582;2023-05-02T05:28:12;5.85;;;1.85;;
65737;SDS011;52478;51.844;6.582;2023-05-02T05:30:38;5.63;;;1.77;;
65737;SDS011;52478;51.844;6.582;2023-05-02T05:33:05;6.45;;;1.75;;
65737;SDS011;52478;51.844;6.582;2023-05-02T05:35:32;6.53;;;1.98;;
65737;SDS011;52478;51.844;6.582;2023-05-02T05:37:58;7.00;;;2.13;;
65737;SDS011;52478;51.844;6.582;2023-05-02T05:40:25;5.95;;;1.92;;
65737;SDS011;52478;51.844;6.582;2023-05-02T05:42:52;7.00;;;2.03;;
65737;SDS011;52478;51.844;6.582;2023-05-02T05:45:19;5.68;;;1.92;;
65737;SDS011;52478;51.844;6.582;2023-05-02T05:47:46;6.88;;;2.30;;
65737;SDS011;52478;51.844;6.582;2023-05-02T05:50:13;7.50;;;2.05;;
65737;SDS011;52478;51.844;6.582;2023-05-02T05:52:39;8.18;;;2.00;;
65737;SDS011;52478;51.844;6.582;2023-05-02T05:55:06;6.32;;;2.30;;
65737;SDS011;52478;51.844;6.582;2023-05-02T05:57:33;8.32;;;2.15;;
65737;SDS011;52478;51.844;6.582;2023-05-02T06:00:00;7.93;;;1.95;;
65737;SDS011;52478;51.844;6.582;2023-05-02T06:02:28;9.32;;;2.58;;
65737;SDS011;52478;51.844;6.582;2023-05-02T06:04:54;6.05;;;2.38;;
65737;SDS011;52478;51.844;6.582;2023-05-02T06:07:21;7.60;;;1.90;;
65737;SDS011;52478;51.844;6.582;2023-05-02T06:09:48;9.15;;;2.00;;
65737;SDS011;52478;51.844;6.582;2023-05-02T06:12:14;8.05;;;2.00;;
65737;SDS011;52478;51.844;6.582;2023-05-02T06:14:41;7.65;;;2.00;;
